sensor_id;sensor_type;location;lat;lon;timestamp;temperature;humidity
12233;DHT22;6179;51.748;8.728;2023-09-19T00:04:17;17.30;98.30
12233;DHT22;6179;51.748;8.728;2023-09-19T00:10:20;17.50;98.30
12233;DHT22;6179;51.748;8.728;2023-09-19T00:16:22;17.30;98.30
12233;DHT22;6179;51.748;8.728;2023-09-19T00:22:23;17.40;98.30
12233;DHT22;6179;51.748;8.728;2023-09-19T00:28:27;17.10;98.30
12233;DHT22;6179;51.748;8.728;2023-09-19T00:34:27;17.00;98.30
12233;DHT22;6179;51.748;8.728;2023-09-19T00:40:28;17.20;98.30
12233;DHT22;6179;51.748;8.728;2023-09-19T00:46:31;17.30;98.30
12233;DHT22;6179;51.748;8.728;2023-09-19T00:52:33;17.20;98.30
12233;DHT22;6179;51.748;8.728;2023-09-19T00:58:37;17.50;98.30
12233;DHT22;6179;51.748;8.728;2023-09-19T01:04:40;16.90;98.30
12233;DHT22;6179;51.748;8.728;2023-09-19T01:11:32;17.00;98.30
12233;DHT22;6179;51.748;8.728;2023-09-19T01:17:25;16.70;98.30
12233;DHT22;6179;51.748;8.728;2023-09-19T01:29:49;16.70;98.30
12233;DHT22;6179;51.748;8.728;2023-09-19T01:35:49;16.50;98.30
12233;DHT22;6179;51.748;8.728;2023-09-19T01:42:18;16.60;98.30
12233;DHT22;6179;51.748;8.728;2023-09-19T01:48:54;16.60;98.30
12233;DHT22;6179;51.748;8.728;2023-09-19T01:55:08;16.50;98.30
12233;DHT22;6179;51.748;8.728;2023-09-19T02:01:12;17.00;98.30
12233;DHT22;6179;51.748;8.728;2023-09-19T02:07:14;17.00;98.30
12233;DHT22;6179;51.748;8.728;2023-09-19T02:13:19;16.70;98.30
12233;DHT22;6179;51.748;8.728;2023-09-19T02:19:20;16.50;98.30
12233;DHT22;6179;51.748;8.728;2023-09-19T02:25:21;16.80;98.30
12233;DHT22;6179;51.748;8.728;2023-09-19T02:31:22;16.80;97.20
12233;DHT22;6179;51.748;8.728;2023-09-19T02:37:22;16.80;97.70
12233;DHT22;6179;51.748;8.728;2023-09-19T02:43:23;16.60;98.20
12233;DHT22;6179;51.748;8.728;2023-09-19T02:49:24;16.60;98.30
12233;DHT22;6179;51.748;8.728;2023-09-19T02:55:25;16.50;97.90
12233;DHT22;6179;51.748;8.728;2023-09-19T03:01:26;16.50;98.30
12233;DHT22;6179;51.748;8.728;2023-09-19T03:07:27;16.20;98.30
12233;DHT22;6179;51.748;8.728;2023-09-19T03:13:28;16.30;98.30
12233;DHT22;6179;51.748;8.728;2023-09-19T03:19:31;16.30;98.20
12233;DHT22;6179;51.748;8.728;2023-09-19T03:25:34;16.60;96.80
12233;DHT22;6179;51.748;8.728;2023-09-19T03:31:36;16.40;97.20
12233;DHT22;6179;51.748;8.728;2023-09-19T03:37:37;16.50;97.40
12233;DHT22;6179;51.748;8.728;2023-09-19T03:43:37;16.20;97.70
12233;DHT22;6179;51.748;8.728;2023-09-19T03:49:38;16.10;98.30
12233;DHT22;6179;51.748;8.728;2023-09-19T03:55:39;16.30;97.40
12233;DHT22;6179;51.748;8.728;2023-09-19T04:01:39;16.30;96.80
12233;DHT22;6179;51.748;8.728;2023-09-19T04:07:41;15.90;97.30
12233;DHT22;6179;51.748;8.728;2023-09-19T04:13:42;16.00;97.00
12233;DHT22;6179;51.748;8.728;2023-09-19T04:19:42;15.70;97.30
12233;DHT22;6179;51.748;8.728;2023-09-19T04:25:43;15.60;97.60
12233;DHT22;6179;51.748;8.728;2023-09-19T04:31:44;15.30;97.40
12233;DHT22;6179;51.748;8.728;2023-09-19T04:37:46;15.40;96.30
12233;DHT22;6179;51.748;8.728;2023-09-19T04:43:48;15.40;96.10
12233;DHT22;6179;51.748;8.728;2023-09-19T04:49:50;15.40;96.90
12233;DHT22;6179;51.748;8.728;2023-09-19T04:55:51;15.10;97.60
12233;DHT22;6179;51.748;8.728;2023-09-19T05:01:55;15.20;97.30
12233;DHT22;6179;51.748;8.728;2023-09-19T05:07:56;15.60;96.00
12233;DHT22;6179;51.748;8.728;2023-09-19T05:13:57;15.30;96.40
12233;DHT22;6179;51.748;8.728;2023-09-19T05:20:02;15.30;96.30
12233;DHT22;6179;51.748;8.728;2023-09-19T05:26:15;15.20;96.30
12233;DHT22;6179;51.748;8.728;2023-09-19T05:32:16;15.00;95.80
12233;DHT22;6179;51.748;8.728;2023-09-19T05:38:19;14.90;96.70
12233;DHT22;6179;51.748;8.728;2023-09-19T05:44:20;14.90;96.00
12233;DHT22;6179;51.748;8.728;2023-09-19T05:50:21;15.20;94.50
12233;DHT22;6179;51.748;8.728;2023-09-19T05:56:22;14.90;96.40
12233;DHT22;6179;51.748;8.728;2023-09-19T06:02:23;14.80;95.70
12233;DHT22;6179;51.748;8.728;2023-09-19T06:08:23;15.00;95.50
12233;DHT22;6179;51.748;8.728;2023-09-19T06:14:24;14.90;95.10
12233;DHT22;6179;51.748;8.728;2023-09-19T06:20:28;15.00;95.20
12233;DHT22;6179;51.748;8.728;2023-09-19T06:26:29;14.90;95.60
12233;DHT22;6179;51.748;8.728;2023-09-19T06:32:31;15.00;95.30
12233;DHT22;6179;51.748;8.728;2023-09-19T06:38:32;14.90;96.40
12233;DHT22;6179;51.748;8.728;2023-09-19T06:44:34;14.90;95.70
12233;DHT22;6179;51.748;8.728;2023-09-19T06:50:35;15.10;95.40
12233;DHT22;6179;51.748;8.728;2023-09-19T06:56:36;15.40;94.10
12233;DHT22;6179;51.748;8.728;2023-09-19T07:02:37;15.50;93.90
12233;DHT22;6179;51.748;8.728;2023-09-19T07:08:37;15.50;93.40
12233;DHT22;6179;51.748;8.728;2023-09-19T07:14:38;15.60;93.00
12233;DHT22;6179;51.748;8.728;2023-09-19T07:20:39;15.60;93.30
12233;DHT22;6179;51.748;8.728;2023-09-19T07:26:46;16.00;92.70
12233;DHT22;6179;51.748;8.728;2023-09-19T07:32:47;15.90;92.80
12233;DHT22;6179;51.748;8.728;2023-09-19T07:38:48;15.70;93.40
12233;DHT22;6179;51.748;8.728;2023-09-19T07:44:48;15.80;93.20
12233;DHT22;6179;51.748;8.728;2023-09-19T07:50:51;16.20;92.60
12233;DHT22;6179;51.748;8.728;2023-09-19T07:56:51;16.40;91.50
12233;DHT22;6179;51.748;8.728;2023-09-19T08:02:52;16.50;92.40
12233;DHT22;6179;51.748;8.728;2023-09-19T08:08:52;16.60;91.50
12233;DHT22;6179;51.748;8.728;2023-09-19T08:14:54;16.90;90.30
12233;DHT22;6179;51.748;8.728;2023-09-19T08:20:55;16.90;90.40
12233;DHT22;6179;51.748;8.728;2023-09-19T08:26:58;17.20;91.20
12233;DHT22;6179;51.748;8.728;2023-09-19T08:33:00;17.20;91.20
12233;DHT22;6179;51.748;8.728;2023-09-19T08:39:01;17.60;89.70
12233;DHT22;6179;51.748;8.728;2023-09-19T08:45:01;17.10;90.90
12233;DHT22;6179;51.748;8.728;2023-09-19T08:51:07;17.30;91.60
12233;DHT22;6179;51.748;8.728;2023-09-19T08:57:10;17.50;90.40
12233;DHT22;6179;51.748;8.728;2023-09-19T09:03:12;17.80;89.60
12233;DHT22;6179;51.748;8.728;2023-09-19T09:09:15;17.50;91.00
12233;DHT22;6179;51.748;8.728;2023-09-19T09:15:18;17.80;90.50
12233;DHT22;6179;51.748;8.728;2023-09-19T09:21:20;17.90;90.20
12233;DHT22;6179;51.748;8.728;2023-09-19T09:27:22;18.10;90.00
12233;DHT22;6179;51.748;8.728;2023-09-19T09:33:25;18.20;86.90
12233;DHT22;6179;51.748;8.728;2023-09-19T09:39:31;18.00;88.30
12233;DHT22;6179;51.748;8.728;2023-09-19T09:45:32;18.20;88.40
12233;DHT22;6179;51.748;8.728;2023-09-19T09:51:33;18.50;87.50
12233;DHT22;6179;51.748;8.728;2023-09-19T09:57:34;18.20;86.80
12233;DHT22;6179;51.748;8.728;2023-09-19T10:03:37;18.20;85.50
12233;DHT22;6179;51.748;8.728;2023-09-19T10:09:46;17.80;85.30
12233;DHT22;6179;51.748;8.728;2023-09-19T10:15:49;18.20;83.80
12233;DHT22;6179;51.748;8.728;2023-09-19T10:21:53;18.20;84.40
12233;DHT22;6179;51.748;8.728;2023-09-19T10:27:55;18.20;84.30
12233;DHT22;6179;51.748;8.728;2023-09-19T10:33:58;18.30;84.40
12233;DHT22;6179;51.748;8.728;2023-09-19T10:39:59;18.10;82.50
12233;DHT22;6179;51.748;8.728;2023-09-19T10:46:07;18.60;83.00
12233;DHT22;6179;51.748;8.728;2023-09-19T10:52:09;18.70;81.40
12233;DHT22;6179;51.748;8.728;2023-09-19T10:58:28;18.40;82.10
12233;DHT22;6179;51.748;8.728;2023-09-19T11:04:35;18.50;85.50
12233;DHT22;6179;51.748;8.728;2023-09-19T11:29:32;18.60;81.60
12233;DHT22;6179;51.748;8.728;2023-09-19T11:48:43;19.20;80.00
12233;DHT22;6179;51.748;8.728;2023-09-19T11:54:44;19.10;81.40
12233;DHT22;6179;51.748;8.728;2023-09-19T12:00:54;19.10;79.40
12233;DHT22;6179;51.748;8.728;2023-09-19T12:06:59;19.70;77.10
12233;DHT22;6179;51.748;8.728;2023-09-19T12:13:00;19.50;79.10
12233;DHT22;6179;51.748;8.728;2023-09-19T12:19:18;19.90;77.80
12233;DHT22;6179;51.748;8.728;2023-09-19T12:25:25;19.90;77.10
12233;DHT22;6179;51.748;8.728;2023-09-19T12:31:27;19.80;78.20
12233;DHT22;6179;51.748;8.728;2023-09-19T12:37:28;19.90;78.10
12233;DHT22;6179;51.748;8.728;2023-09-19T12:43:31;20.50;78.10
12233;DHT22;6179;51.748;8.728;2023-09-19T12:49:33;20.40;77.50
12233;DHT22;6179;51.748;8.728;2023-09-19T12:55:34;20.40;76.60
12233;DHT22;6179;51.748;8.728;2023-09-19T13:01:37;20.40;78.60
12233;DHT22;6179;51.748;8.728;2023-09-19T13:07:44;20.60;75.20
12233;DHT22;6179;51.748;8.728;2023-09-19T13:14:13;20.10;74.80
12233;DHT22;6179;51.748;8.728;2023-09-19T13:20:25;20.10;74.90
12233;DHT22;6179;51.748;8.728;2023-09-19T13:26:29;20.50;76.40
12233;DHT22;6179;51.748;8.728;2023-09-19T13:32:29;20.50;76.20
12233;DHT22;6179;51.748;8.728;2023-09-19T13:38:32;20.40;75.00
12233;DHT22;6179;51.748;8.728;2023-09-19T13:44:35;20.30;75.90
12233;DHT22;6179;51.748;8.728;2023-09-19T13:50:35;20.40;75.50
12233;DHT22;6179;51.748;8.728;2023-09-19T13:56:36;20.60;77.10
12233;DHT22;6179;51.748;8.728;2023-09-19T14:02:37;20.90;77.40
12233;DHT22;6179;51.748;8.728;2023-09-19T14:08:39;20.80;76.40
12233;DHT22;6179;51.748;8.728;2023-09-19T14:14:39;20.50;76.80
12233;DHT22;6179;51.748;8.728;2023-09-19T14:20:41;20.50;77.20
12233;DHT22;6179;51.748;8.728;2023-09-19T14:26:42;20.00;77.90
12233;DHT22;6179;51.748;8.728;2023-09-19T14:32:42;20.10;79.10
12233;DHT22;6179;51.748;8.728;2023-09-19T14:38:43;20.10;77.80
12233;DHT22;6179;51.748;8.728;2023-09-19T14:44:44;20.50;75.90
12233;DHT22;6179;51.748;8.728;2023-09-19T14:50:45;20.60;77.40
12233;DHT22;6179;51.748;8.728;2023-09-19T14:56:48;20.70;75.80
12233;DHT22;6179;51.748;8.728;2023-09-19T15:02:54;20.70;76.00
12233;DHT22;6179;51.748;8.728;2023-09-19T15:08:56;20.60;76.10
12233;DHT22;6179;51.748;8.728;2023-09-19T15:14:57;20.70;77.60
12233;DHT22;6179;51.748;8.728;2023-09-19T15:21:00;20.30;74.60
12233;DHT22;6179;51.748;8.728;2023-09-19T15:27:01;19.70;76.90
12233;DHT22;6179;51.748;8.728;2023-09-19T15:33:02;19.90;76.10
12233;DHT22;6179;51.748;8.728;2023-09-19T15:39:06;19.90;76.20
12233;DHT22;6179;51.748;8.728;2023-09-19T15:45:08;19.80;76.00
12233;DHT22;6179;51.748;8.728;2023-09-19T15:51:10;19.60;76.60
12233;DHT22;6179;51.748;8.728;2023-09-19T15:57:14;19.40;77.30
12233;DHT22;6179;51.748;8.728;2023-09-19T16:03:15;19.60;76.70
12233;DHT22;6179;51.748;8.728;2023-09-19T16:09:16;19.90;75.90
12233;DHT22;6179;51.748;8.728;2023-09-19T16:15:16;20.20;76.60
12233;DHT22;6179;51.748;8.728;2023-09-19T16:21:19;20.20;76.50
12233;DHT22;6179;51.748;8.728;2023-09-19T16:27:20;19.80;76.20
12233;DHT22;6179;51.748;8.728;2023-09-19T16:33:21;19.80;76.90
12233;DHT22;6179;51.748;8.728;2023-09-19T16:39:22;20.00;77.10
12233;DHT22;6179;51.748;8.728;2023-09-19T16:45:23;19.60;77.70
12233;DHT22;6179;51.748;8.728;2023-09-19T16:51:24;19.50;76.50
12233;DHT22;6179;51.748;8.728;2023-09-19T16:57:25;19.50;77.80
12233;DHT22;6179;51.748;8.728;2023-09-19T17:03:26;19.40;78.10
12233;DHT22;6179;51.748;8.728;2023-09-19T17:09:26;19.40;77.70
12233;DHT22;6179;51.748;8.728;2023-09-19T17:15:27;19.10;78.60
12233;DHT22;6179;51.748;8.728;2023-09-19T17:21:28;19.10;78.30
12233;DHT22;6179;51.748;8.728;2023-09-19T17:27:28;18.90;79.90
12233;DHT22;6179;51.748;8.728;2023-09-19T17:33:29;18.70;79.80
12233;DHT22;6179;51.748;8.728;2023-09-19T17:39:30;18.40;81.40
12233;DHT22;6179;51.748;8.728;2023-09-19T17:45:30;18.50;81.20
12233;DHT22;6179;51.748;8.728;2023-09-19T17:51:31;18.80;80.90
12233;DHT22;6179;51.748;8.728;2023-09-19T17:57:32;18.60;80.90
12233;DHT22;6179;51.748;8.728;2023-09-19T18:03:32;18.70;81.60
12233;DHT22;6179;51.748;8.728;2023-09-19T18:09:33;18.20;82.60
12233;DHT22;6179;51.748;8.728;2023-09-19T18:15:36;18.40;82.80
12233;DHT22;6179;51.748;8.728;2023-09-19T18:21:39;18.10;84.00
12233;DHT22;6179;51.748;8.728;2023-09-19T18:27:42;18.10;83.30
12233;DHT22;6179;51.748;8.728;2023-09-19T18:33:42;18.10;83.30
12233;DHT22;6179;51.748;8.728;2023-09-19T18:39:43;18.40;82.50
12233;DHT22;6179;51.748;8.728;2023-09-19T18:45:43;17.70;84.90
12233;DHT22;6179;51.748;8.728;2023-09-19T18:51:44;18.20;83.20
12233;DHT22;6179;51.748;8.728;2023-09-19T18:57:45;17.90;84.20
12233;DHT22;6179;51.748;8.728;2023-09-19T19:03:47;17.70;84.50
12233;DHT22;6179;51.748;8.728;2023-09-19T19:09:49;17.80;84.30
12233;DHT22;6179;51.748;8.728;2023-09-19T19:15:49;18.10;84.30
12233;DHT22;6179;51.748;8.728;2023-09-19T19:21:50;18.00;84.80
12233;DHT22;6179;51.748;8.728;2023-09-19T19:27:52;17.70;84.90
12233;DHT22;6179;51.748;8.728;2023-09-19T19:33:53;17.90;84.00
12233;DHT22;6179;51.748;8.728;2023-09-19T19:39:53;17.90;84.40
12233;DHT22;6179;51.748;8.728;2023-09-19T19:45:59;17.80;85.10
12233;DHT22;6179;51.748;8.728;2023-09-19T19:52:00;17.90;84.10
12233;DHT22;6179;51.748;8.728;2023-09-19T19:58:01;17.80;84.70
12233;DHT22;6179;51.748;8.728;2023-09-19T20:04:02;17.90;84.90
12233;DHT22;6179;51.748;8.728;2023-09-19T20:10:03;18.30;82.80
12233;DHT22;6179;51.748;8.728;2023-09-19T20:16:04;18.20;83.80
12233;DHT22;6179;51.748;8.728;2023-09-19T20:22:04;18.30;83.90
12233;DHT22;6179;51.748;8.728;2023-09-19T20:28:11;18.40;83.40
12233;DHT22;6179;51.748;8.728;2023-09-19T20:34:17;18.40;82.90
12233;DHT22;6179;51.748;8.728;2023-09-19T20:40:17;18.00;85.00
12233;DHT22;6179;51.748;8.728;2023-09-19T20:46:21;18.00;84.40
12233;DHT22;6179;51.748;8.728;2023-09-19T20:52:23;18.10;84.30
12233;DHT22;6179;51.748;8.728;2023-09-19T20:58:24;18.00;84.40
12233;DHT22;6179;51.748;8.728;2023-09-19T21:04:25;17.90;84.70
12233;DHT22;6179;51.748;8.728;2023-09-19T21:10:28;17.80;85.80
12233;DHT22;6179;51.748;8.728;2023-09-19T21:16:30;17.50;87.00
12233;DHT22;6179;51.748;8.728;2023-09-19T21:22:31;17.30;88.10
12233;DHT22;6179;51.748;8.728;2023-09-19T21:28:31;17.90;85.40
12233;DHT22;6179;51.748;8.728;2023-09-19T21:34:32;17.80;85.40
12233;DHT22;6179;51.748;8.728;2023-09-19T21:40:32;17.50;86.00
12233;DHT22;6179;51.748;8.728;2023-09-19T21:46:33;17.80;85.90
12233;DHT22;6179;51.748;8.728;2023-09-19T21:52:34;17.90;86.10
12233;DHT22;6179;51.748;8.728;2023-09-19T21:58:35;18.00;85.90
12233;DHT22;6179;51.748;8.728;2023-09-19T22:04:38;18.40;84.50
12233;DHT22;6179;51.748;8.728;2023-09-19T22:10:48;18.40;84.50
12233;DHT22;6179;51.748;8.728;2023-09-19T22:16:49;18.10;85.50
12233;DHT22;6179;51.748;8.728;2023-09-19T22:22:50;17.90;85.90
12233;DHT22;6179;51.748;8.728;2023-09-19T22:28:53;18.10;85.90
12233;DHT22;6179;51.748;8.728;2023-09-19T22:34:54;18.20;85.50
12233;DHT22;6179;51.748;8.728;2023-09-19T22:40:54;18.30;85.20
12233;DHT22;6179;51.748;8.728;2023-09-19T22:46:55;18.30;86.00
12233;DHT22;6179;51.748;8.728;2023-09-19T22:52:57;18.20;86.60
12233;DHT22;6179;51.748;8.728;2023-09-19T22:59:03;18.20;86.50
12233;DHT22;6179;51.748;8.728;2023-09-19T23:05:06;18.20;86.60
12233;DHT22;6179;51.748;8.728;2023-09-19T23:11:16;18.20;86.50
12233;DHT22;6179;51.748;8.728;2023-09-19T23:17:22;18.30;86.60
12233;DHT22;6179;51.748;8.728;2023-09-19T23:23:23;18.20;86.90
12233;DHT22;6179;51.748;8.728;2023-09-19T23:29:25;18.20;87.70
12233;DHT22;6179;51.748;8.728;2023-09-19T23:35:26;18.00;87.90
12233;DHT22;6179;51.748;8.728;2023-09-19T23:41:29;18.00;89.10
12233;DHT22;6179;51.748;8.728;2023-09-19T23:47:31;18.10;88.60
12233;DHT22;6179;51.748;8.728;2023-09-19T23:53:32;18.10;88.40
12233;DHT22;6179;51.748;8.728;2023-09-19T23:59:39;18.10;88.50
